sensor_id;sensor_type;location;lat;lon;timestamp;P1;durP1;ratioP1;P2;durP2;ratioP2
15454;SDS011;21057;51.024;7.540;2022-11-15T00:00:30;33.73;;;31.43;;
15454;SDS011;21057;51.024;7.540;2022-11-15T00:02:57;34.07;;;31.67;;
15454;SDS011;21057;51.024;7.540;2022-11-15T00:05:24;34.23;;;31.83;;
15454;SDS011;21057;51.024;7.540;2022-11-15T00:07:50;33.77;;;31.17;;
15454;SDS011;21057;51.024;7.540;2022-11-15T00:10:17;34.97;;;32.23;;
15454;SDS011;21057;51.024;7.540;2022-11-15T00:12:45;34.23;;;31.73;;
15454;SDS011;21057;51.024;7.540;2022-11-15T00:15:12;33.93;;;31.53;;
15454;SDS011;21057;51.024;7.540;2022-11-15T00:17:40;33.27;;;30.80;;
15454;SDS011;21057;51.024;7.540;2022-11-15T00:20:07;35.13;;;32.57;;
15454;SDS011;21057;51.024;7.540;2022-11-15T00:22:35;34.03;;;31.63;;
15454;SDS011;21057;51.024;7.540;2022-11-15T00:25:02;35.07;;;32.20;;
15454;SDS011;21057;51.024;7.540;2022-11-15T00:27:29;33.77;;;31.20;;
15454;SDS011;21057;51.024;7.540;2022-11-15T00:29:56;35.37;;;32.93;;
15454;SDS011;21057;51.024;7.540;2022-11-15T00:32:22;33.20;;;31.00;;
15454;SDS011;21057;51.024;7.540;2022-11-15T00:34:50;37.40;;;34.30;;
15454;SDS011;21057;51.024;7.540;2022-11-15T00:37:17;36.77;;;33.57;;
15454;SDS011;21057;51.024;7.540;2022-11-15T00:39:44;35.57;;;33.07;;
15454;SDS011;21057;51.024;7.540;2022-11-15T00:42:11;37.27;;;33.37;;
15454;SDS011;21057;51.024;7.540;2022-11-15T00:44:38;34.50;;;31.73;;
15454;SDS011;21057;51.024;7.540;2022-11-15T00:47:04;35.53;;;32.70;;
15454;SDS011;21057;51.024;7.540;2022-11-15T00:49:31;34.83;;;31.73;;
15454;SDS011;21057;51.024;7.540;2022-11-15T00:51:59;34.07;;;31.47;;
15454;SDS011;21057;51.024;7.540;2022-11-15T00:54:26;35.37;;;32.20;;
15454;SDS011;21057;51.024;7.540;2022-11-15T00:56:53;36.03;;;33.33;;
15454;SDS011;21057;51.024;7.540;2022-11-15T00:59:19;34.17;;;31.57;;
15454;SDS011;21057;51.024;7.540;2022-11-15T01:01:46;34.97;;;31.73;;
15454;SDS011;21057;51.024;7.540;2022-11-15T01:04:13;34.13;;;31.20;;
15454;SDS011;21057;51.024;7.540;2022-11-15T01:06:40;34.07;;;31.27;;
15454;SDS011;21057;51.024;7.540;2022-11-15T01:09:08;34.63;;;31.77;;
15454;SDS011;21057;51.024;7.540;2022-11-15T01:11:35;33.87;;;31.20;;
15454;SDS011;21057;51.024;7.540;2022-11-15T01:14:02;34.23;;;31.53;;
15454;SDS011;21057;51.024;7.540;2022-11-15T01:16:29;32.30;;;29.93;;
15454;SDS011;21057;51.024;7.540;2022-11-15T01:18:56;34.27;;;31.30;;
15454;SDS011;21057;51.024;7.540;2022-11-15T01:21:22;33.33;;;30.80;;
15454;SDS011;21057;51.024;7.540;2022-11-15T01:23:52;32.33;;;29.87;;
15454;SDS011;21057;51.024;7.540;2022-11-15T01:26:20;33.23;;;30.60;;
15454;SDS011;21057;51.024;7.540;2022-11-15T01:28:48;34.17;;;31.27;;
15454;SDS011;21057;51.024;7.540;2022-11-15T01:31:16;33.37;;;30.53;;
15454;SDS011;21057;51.024;7.540;2022-11-15T01:33:44;34.67;;;31.20;;
15454;SDS011;21057;51.024;7.540;2022-11-15T01:36:13;32.80;;;30.03;;
15454;SDS011;21057;51.024;7.540;2022-11-15T01:38:43;35.63;;;31.53;;
15454;SDS011;21057;51.024;7.540;2022-11-15T01:41:16;33.13;;;30.27;;
15454;SDS011;21057;51.024;7.540;2022-11-15T01:43:48;33.90;;;30.77;;
15454;SDS011;21057;51.024;7.540;2022-11-15T01:46:21;33.33;;;30.80;;
15454;SDS011;21057;51.024;7.540;2022-11-15T01:48:53;33.30;;;30.80;;
15454;SDS011;21057;51.024;7.540;2022-11-15T01:51:23;33.97;;;31.27;;
15454;SDS011;21057;51.024;7.540;2022-11-15T01:53:54;33.97;;;31.60;;
15454;SDS011;21057;51.024;7.540;2022-11-15T01:56:24;35.47;;;32.40;;
15454;SDS011;21057;51.024;7.540;2022-11-15T01:58:56;34.43;;;31.87;;
15454;SDS011;21057;51.024;7.540;2022-11-15T02:01:25;34.83;;;32.03;;
15454;SDS011;21057;51.024;7.540;2022-11-15T02:03:54;36.23;;;32.97;;
15454;SDS011;21057;51.024;7.540;2022-11-15T02:06:24;34.60;;;31.90;;
15454;SDS011;21057;51.024;7.540;2022-11-15T02:08:51;36.50;;;33.20;;
15454;SDS011;21057;51.024;7.540;2022-11-15T02:11:19;36.80;;;34.23;;
15454;SDS011;21057;51.024;7.540;2022-11-15T02:13:45;37.03;;;34.23;;
15454;SDS011;21057;51.024;7.540;2022-11-15T02:16:15;34.47;;;31.97;;
15454;SDS011;21057;51.024;7.540;2022-11-15T02:18:55;33.27;;;30.77;;
15454;SDS011;21057;51.024;7.540;2022-11-15T02:21:27;34.90;;;32.23;;
15454;SDS011;21057;51.024;7.540;2022-11-15T02:24:03;36.50;;;33.90;;
15454;SDS011;21057;51.024;7.540;2022-11-15T02:30:00;34.80;;;31.90;;
15454;SDS011;21057;51.024;7.540;2022-11-15T02:32:40;33.87;;;31.47;;
15454;SDS011;21057;51.024;7.540;2022-11-15T02:35:13;34.03;;;31.47;;
15454;SDS011;21057;51.024;7.540;2022-11-15T02:37:50;33.67;;;31.07;;
15454;SDS011;21057;51.024;7.540;2022-11-15T02:40:23;35.80;;;33.20;;
15454;SDS011;21057;51.024;7.540;2022-11-15T02:42:59;34.93;;;32.53;;
15454;SDS011;21057;51.024;7.540;2022-11-15T02:46:05;35.03;;;32.47;;
15454;SDS011;21057;51.024;7.540;2022-11-15T02:48:35;36.03;;;33.13;;
15454;SDS011;21057;51.024;7.540;2022-11-15T02:51:05;34.70;;;32.17;;
15454;SDS011;21057;51.024;7.540;2022-11-15T02:53:32;36.00;;;33.20;;
15454;SDS011;21057;51.024;7.540;2022-11-15T02:55:59;34.60;;;32.10;;
15454;SDS011;21057;51.024;7.540;2022-11-15T03:01:31;34.77;;;32.27;;
15454;SDS011;21057;51.024;7.540;2022-11-15T03:04:08;34.27;;;31.73;;
15454;SDS011;21057;51.024;7.540;2022-11-15T03:06:45;33.47;;;31.17;;
15454;SDS011;21057;51.024;7.540;2022-11-15T03:09:19;32.30;;;30.03;;
15454;SDS011;21057;51.024;7.540;2022-11-15T03:11:56;35.53;;;32.97;;
15454;SDS011;21057;51.024;7.540;2022-11-15T03:14:29;34.53;;;31.70;;
15454;SDS011;21057;51.024;7.540;2022-11-15T03:17:02;34.50;;;32.00;;
15454;SDS011;21057;51.024;7.540;2022-11-15T03:19:38;32.70;;;30.47;;
15454;SDS011;21057;51.024;7.540;2022-11-15T03:22:09;33.37;;;31.03;;
15454;SDS011;21057;51.024;7.540;2022-11-15T03:24:40;33.90;;;31.37;;
15454;SDS011;21057;51.024;7.540;2022-11-15T03:27:09;32.87;;;29.97;;
15454;SDS011;21057;51.024;7.540;2022-11-15T03:29:41;31.67;;;29.57;;
15454;SDS011;21057;51.024;7.540;2022-11-15T03:32:14;31.60;;;29.50;;
15454;SDS011;21057;51.024;7.540;2022-11-15T03:34:46;31.47;;;29.20;;
15454;SDS011;21057;51.024;7.540;2022-11-15T03:37:17;32.37;;;30.07;;
15454;SDS011;21057;51.024;7.540;2022-11-15T03:39:47;31.57;;;29.33;;
15454;SDS011;21057;51.024;7.540;2022-11-15T03:42:17;33.10;;;30.70;;
15454;SDS011;21057;51.024;7.540;2022-11-15T03:44:51;33.87;;;31.23;;
15454;SDS011;21057;51.024;7.540;2022-11-15T03:47:27;33.43;;;30.80;;
15454;SDS011;21057;51.024;7.540;2022-11-15T03:49:59;34.27;;;31.60;;
15454;SDS011;21057;51.024;7.540;2022-11-15T03:52:30;33.20;;;30.83;;
15454;SDS011;21057;51.024;7.540;2022-11-15T03:54:58;31.53;;;29.37;;
15454;SDS011;21057;51.024;7.540;2022-11-15T03:57:27;31.87;;;29.23;;
15454;SDS011;21057;51.024;7.540;2022-11-15T03:59:54;32.13;;;29.87;;
15454;SDS011;21057;51.024;7.540;2022-11-15T04:02:21;32.00;;;29.83;;
15454;SDS011;21057;51.024;7.540;2022-11-15T04:04:49;32.17;;;29.77;;
15454;SDS011;21057;51.024;7.540;2022-11-15T04:07:16;33.37;;;30.93;;
15454;SDS011;21057;51.024;7.540;2022-11-15T04:09:43;33.40;;;30.80;;
15454;SDS011;21057;51.024;7.540;2022-11-15T04:12:28;34.77;;;32.20;;
15454;SDS011;21057;51.024;7.540;2022-11-15T04:14:58;36.03;;;33.27;;
15454;SDS011;21057;51.024;7.540;2022-11-15T04:17:35;36.30;;;33.73;;
15454;SDS011;21057;51.024;7.540;2022-11-15T04:20:06;34.33;;;32.03;;
15454;SDS011;21057;51.024;7.540;2022-11-15T04:22:54;35.40;;;32.90;;
15454;SDS011;21057;51.024;7.540;2022-11-15T04:25:39;34.27;;;32.07;;
15454;SDS011;21057;51.024;7.540;2022-11-15T04:28:07;34.93;;;32.40;;
15454;SDS011;21057;51.024;7.540;2022-11-15T04:30:34;35.07;;;32.70;;
15454;SDS011;21057;51.024;7.540;2022-11-15T04:33:01;35.93;;;33.23;;
15454;SDS011;21057;51.024;7.540;2022-11-15T04:35:29;36.23;;;33.73;;
15454;SDS011;21057;51.024;7.540;2022-11-15T04:37:56;37.23;;;34.33;;
15454;SDS011;21057;51.024;7.540;2022-11-15T04:40:23;36.77;;;34.37;;
15454;SDS011;21057;51.024;7.540;2022-11-15T04:42:50;38.40;;;35.90;;
15454;SDS011;21057;51.024;7.540;2022-11-15T04:45:17;38.33;;;35.70;;
15454;SDS011;21057;51.024;7.540;2022-11-15T04:47:44;37.40;;;34.83;;
15454;SDS011;21057;51.024;7.540;2022-11-15T04:50:11;37.50;;;34.70;;
15454;SDS011;21057;51.024;7.540;2022-11-15T04:52:41;37.13;;;34.50;;
15454;SDS011;21057;51.024;7.540;2022-11-15T04:55:08;36.90;;;34.40;;
15454;SDS011;21057;51.024;7.540;2022-11-15T04:57:35;38.17;;;35.77;;
15454;SDS011;21057;51.024;7.540;2022-11-15T05:00:02;37.83;;;35.13;;
15454;SDS011;21057;51.024;7.540;2022-11-15T05:02:31;39.17;;;36.27;;
15454;SDS011;21057;51.024;7.540;2022-11-15T05:05:11;39.80;;;37.30;;
15454;SDS011;21057;51.024;7.540;2022-11-15T05:07:38;39.93;;;37.37;;
15454;SDS011;21057;51.024;7.540;2022-11-15T05:10:07;41.97;;;39.17;;
15454;SDS011;21057;51.024;7.540;2022-11-15T05:12:34;40.10;;;37.30;;
15454;SDS011;21057;51.024;7.540;2022-11-15T05:15:01;37.33;;;34.80;;
15454;SDS011;21057;51.024;7.540;2022-11-15T05:17:28;38.23;;;35.63;;
15454;SDS011;21057;51.024;7.540;2022-11-15T05:19:55;37.80;;;35.37;;
15454;SDS011;21057;51.024;7.540;2022-11-15T05:22:22;36.90;;;34.60;;
15454;SDS011;21057;51.024;7.540;2022-11-15T05:24:50;36.13;;;33.73;;
15454;SDS011;21057;51.024;7.540;2022-11-15T05:27:17;38.20;;;35.70;;
15454;SDS011;21057;51.024;7.540;2022-11-15T05:29:44;38.07;;;35.57;;
15454;SDS011;21057;51.024;7.540;2022-11-15T05:32:11;37.57;;;35.00;;
15454;SDS011;21057;51.024;7.540;2022-11-15T05:34:38;37.37;;;34.97;;
15454;SDS011;21057;51.024;7.540;2022-11-15T05:37:05;37.30;;;35.10;;
15454;SDS011;21057;51.024;7.540;2022-11-15T05:39:32;38.47;;;36.07;;
15454;SDS011;21057;51.024;7.540;2022-11-15T05:42:01;38.17;;;35.77;;
15454;SDS011;21057;51.024;7.540;2022-11-15T05:44:32;37.73;;;35.43;;
15454;SDS011;21057;51.024;7.540;2022-11-15T05:47:02;39.27;;;36.63;;
15454;SDS011;21057;51.024;7.540;2022-11-15T05:49:31;40.43;;;38.00;;
15454;SDS011;21057;51.024;7.540;2022-11-15T05:52:00;37.17;;;35.03;;
15454;SDS011;21057;51.024;7.540;2022-11-15T05:54:31;36.30;;;34.07;;
15454;SDS011;21057;51.024;7.540;2022-11-15T05:56:58;35.90;;;33.80;;
15454;SDS011;21057;51.024;7.540;2022-11-15T05:59:28;35.83;;;33.53;;
15454;SDS011;21057;51.024;7.540;2022-11-15T06:01:55;35.53;;;33.30;;
15454;SDS011;21057;51.024;7.540;2022-11-15T06:04:22;33.63;;;31.63;;
15454;SDS011;21057;51.024;7.540;2022-11-15T06:06:49;34.93;;;32.93;;
15454;SDS011;21057;51.024;7.540;2022-11-15T06:09:16;35.60;;;33.50;;
15454;SDS011;21057;51.024;7.540;2022-11-15T06:11:42;36.27;;;34.17;;
15454;SDS011;21057;51.024;7.540;2022-11-15T06:14:11;35.33;;;33.33;;
15454;SDS011;21057;51.024;7.540;2022-11-15T06:16:37;33.73;;;31.80;;
15454;SDS011;21057;51.024;7.540;2022-11-15T06:19:05;35.40;;;33.10;;
15454;SDS011;21057;51.024;7.540;2022-11-15T06:21:32;36.87;;;34.47;;
15454;SDS011;21057;51.024;7.540;2022-11-15T06:23:59;36.77;;;34.67;;
15454;SDS011;21057;51.024;7.540;2022-11-15T06:26:26;34.70;;;32.63;;
15454;SDS011;21057;51.024;7.540;2022-11-15T06:28:53;37.50;;;35.00;;
15454;SDS011;21057;51.024;7.540;2022-11-15T06:31:21;36.87;;;34.73;;
15454;SDS011;21057;51.024;7.540;2022-11-15T06:33:48;35.93;;;33.90;;
15454;SDS011;21057;51.024;7.540;2022-11-15T06:36:15;33.93;;;31.73;;
15454;SDS011;21057;51.024;7.540;2022-11-15T06:38:42;33.07;;;31.07;;
15454;SDS011;21057;51.024;7.540;2022-11-15T06:41:09;33.27;;;31.37;;
15454;SDS011;21057;51.024;7.540;2022-11-15T06:43:37;33.00;;;31.00;;
15454;SDS011;21057;51.024;7.540;2022-11-15T06:46:05;33.17;;;31.37;;
15454;SDS011;21057;51.024;7.540;2022-11-15T06:48:34;32.77;;;30.97;;
15454;SDS011;21057;51.024;7.540;2022-11-15T06:51:01;33.73;;;31.63;;
15454;SDS011;21057;51.024;7.540;2022-11-15T06:53:30;33.50;;;31.60;;
15454;SDS011;21057;51.024;7.540;2022-11-15T06:55:58;31.73;;;29.83;;
15454;SDS011;21057;51.024;7.540;2022-11-15T06:58:26;30.93;;;29.13;;
15454;SDS011;21057;51.024;7.540;2022-11-15T07:00:53;30.93;;;28.93;;
15454;SDS011;21057;51.024;7.540;2022-11-15T07:03:20;29.53;;;27.73;;
15454;SDS011;21057;51.024;7.540;2022-11-15T07:05:52;30.70;;;28.90;;
15454;SDS011;21057;51.024;7.540;2022-11-15T07:08:20;30.30;;;28.57;;
15454;SDS011;21057;51.024;7.540;2022-11-15T07:10:47;28.70;;;27.00;;
15454;SDS011;21057;51.024;7.540;2022-11-15T07:13:14;30.27;;;28.43;;
15454;SDS011;21057;51.024;7.540;2022-11-15T07:15:41;27.87;;;26.07;;
15454;SDS011;21057;51.024;7.540;2022-11-15T07:18:07;29.80;;;28.00;;
15454;SDS011;21057;51.024;7.540;2022-11-15T07:20:34;29.27;;;27.57;;
15454;SDS011;21057;51.024;7.540;2022-11-15T07:23:03;29.37;;;27.67;;
15454;SDS011;21057;51.024;7.540;2022-11-15T07:25:30;26.77;;;25.27;;
15454;SDS011;21057;51.024;7.540;2022-11-15T07:27:58;27.77;;;26.07;;
15454;SDS011;21057;51.024;7.540;2022-11-15T07:30:25;27.67;;;26.07;;
15454;SDS011;21057;51.024;7.540;2022-11-15T07:32:53;26.83;;;25.30;;
15454;SDS011;21057;51.024;7.540;2022-11-15T07:35:20;28.60;;;27.00;;
15454;SDS011;21057;51.024;7.540;2022-11-15T07:37:52;27.83;;;26.23;;
15454;SDS011;21057;51.024;7.540;2022-11-15T07:40:22;28.50;;;26.70;;
15454;SDS011;21057;51.024;7.540;2022-11-15T07:42:49;27.70;;;26.00;;
15454;SDS011;21057;51.024;7.540;2022-11-15T07:45:19;27.07;;;25.57;;
15454;SDS011;21057;51.024;7.540;2022-11-15T07:47:46;27.30;;;25.70;;
15454;SDS011;21057;51.024;7.540;2022-11-15T07:50:13;27.27;;;25.67;;
15454;SDS011;21057;51.024;7.540;2022-11-15T07:52:40;27.87;;;26.27;;
15454;SDS011;21057;51.024;7.540;2022-11-15T07:55:07;28.27;;;26.67;;
15454;SDS011;21057;51.024;7.540;2022-11-15T07:57:36;27.90;;;26.27;;
15454;SDS011;21057;51.024;7.540;2022-11-15T08:00:03;26.63;;;24.93;;
15454;SDS011;21057;51.024;7.540;2022-11-15T08:02:31;30.17;;;28.37;;
15454;SDS011;21057;51.024;7.540;2022-11-15T08:04:58;27.30;;;25.63;;
15454;SDS011;21057;51.024;7.540;2022-11-15T08:07:26;27.27;;;25.67;;
15454;SDS011;21057;51.024;7.540;2022-11-15T08:09:54;29.57;;;27.47;;
15454;SDS011;21057;51.024;7.540;2022-11-15T08:12:21;30.90;;;28.67;;
15454;SDS011;21057;51.024;7.540;2022-11-15T08:14:50;29.03;;;27.23;;
15454;SDS011;21057;51.024;7.540;2022-11-15T08:17:16;26.83;;;25.13;;
15454;SDS011;21057;51.024;7.540;2022-11-15T08:19:43;27.50;;;25.77;;
15454;SDS011;21057;51.024;7.540;2022-11-15T08:22:10;28.67;;;26.77;;
15454;SDS011;21057;51.024;7.540;2022-11-15T08:24:37;27.23;;;25.60;;
15454;SDS011;21057;51.024;7.540;2022-11-15T08:27:04;27.90;;;25.97;;
15454;SDS011;21057;51.024;7.540;2022-11-15T08:29:39;27.43;;;25.63;;
15454;SDS011;21057;51.024;7.540;2022-11-15T08:32:08;27.30;;;25.67;;
15454;SDS011;21057;51.024;7.540;2022-11-15T08:34:35;26.17;;;24.50;;
15454;SDS011;21057;51.024;7.540;2022-11-15T08:37:02;27.63;;;25.80;;
15454;SDS011;21057;51.024;7.540;2022-11-15T08:39:29;26.67;;;25.07;;
15454;SDS011;21057;51.024;7.540;2022-11-15T08:41:56;25.67;;;24.07;;
15454;SDS011;21057;51.024;7.540;2022-11-15T08:44:24;26.77;;;24.90;;
15454;SDS011;21057;51.024;7.540;2022-11-15T08:46:50;26.60;;;24.70;;
15454;SDS011;21057;51.024;7.540;2022-11-15T08:49:18;26.93;;;25.03;;
15454;SDS011;21057;51.024;7.540;2022-11-15T08:51:45;25.33;;;23.73;;
15454;SDS011;21057;51.024;7.540;2022-11-15T08:54:12;25.90;;;24.33;;
15454;SDS011;21057;51.024;7.540;2022-11-15T08:56:39;24.47;;;22.97;;
15454;SDS011;21057;51.024;7.540;2022-11-15T08:59:06;25.30;;;23.70;;
15454;SDS011;21057;51.024;7.540;2022-11-15T09:01:33;24.73;;;23.23;;
15454;SDS011;21057;51.024;7.540;2022-11-15T09:03:59;24.90;;;23.40;;
15454;SDS011;21057;51.024;7.540;2022-11-15T09:06:28;26.70;;;24.70;;
15454;SDS011;21057;51.024;7.540;2022-11-15T09:08:54;26.13;;;24.60;;
15454;SDS011;21057;51.024;7.540;2022-11-15T09:11:22;26.93;;;24.73;;
15454;SDS011;21057;51.024;7.540;2022-11-15T09:13:49;24.30;;;22.70;;
15454;SDS011;21057;51.024;7.540;2022-11-15T09:16:16;24.60;;;23.00;;
15454;SDS011;21057;51.024;7.540;2022-11-15T09:18:43;25.33;;;23.80;;
15454;SDS011;21057;51.024;7.540;2022-11-15T09:21:10;24.23;;;22.73;;
15454;SDS011;21057;51.024;7.540;2022-11-15T09:23:38;24.73;;;22.93;;
15454;SDS011;21057;51.024;7.540;2022-11-15T09:26:05;23.60;;;22.20;;
15454;SDS011;21057;51.024;7.540;2022-11-15T09:28:33;23.27;;;21.77;;
15454;SDS011;21057;51.024;7.540;2022-11-15T09:31:01;23.67;;;22.27;;
15454;SDS011;21057;51.024;7.540;2022-11-15T09:33:38;23.40;;;22.00;;
15454;SDS011;21057;51.024;7.540;2022-11-15T09:36:06;23.90;;;22.40;;
15454;SDS011;21057;51.024;7.540;2022-11-15T09:38:34;22.77;;;21.47;;
15454;SDS011;21057;51.024;7.540;2022-11-15T09:44:04;23.60;;;22.20;;
15454;SDS011;21057;51.024;7.540;2022-11-15T09:46:44;24.00;;;22.60;;
15454;SDS011;21057;51.024;7.540;2022-11-15T09:49:20;21.90;;;20.60;;
15454;SDS011;21057;51.024;7.540;2022-11-15T09:51:49;23.13;;;21.73;;
15454;SDS011;21057;51.024;7.540;2022-11-15T09:54:21;22.93;;;21.20;;
15454;SDS011;21057;51.024;7.540;2022-11-15T09:56:54;21.30;;;20.00;;
15454;SDS011;21057;51.024;7.540;2022-11-15T09:59:36;22.40;;;21.10;;
15454;SDS011;21057;51.024;7.540;2022-11-15T10:02:16;21.27;;;19.90;;
15454;SDS011;21057;51.024;7.540;2022-11-15T10:04:57;21.77;;;20.47;;
15454;SDS011;21057;51.024;7.540;2022-11-15T10:07:26;21.20;;;19.90;;
15454;SDS011;21057;51.024;7.540;2022-11-15T10:09:59;22.63;;;21.23;;
15454;SDS011;21057;51.024;7.540;2022-11-15T10:12:32;22.00;;;20.60;;
15454;SDS011;21057;51.024;7.540;2022-11-15T10:15:00;22.10;;;20.80;;
15454;SDS011;21057;51.024;7.540;2022-11-15T10:17:47;21.43;;;20.03;;
15454;SDS011;21057;51.024;7.540;2022-11-15T10:20:30;21.43;;;20.13;;
15454;SDS011;21057;51.024;7.540;2022-11-15T10:23:05;21.20;;;19.77;;
15454;SDS011;21057;51.024;7.540;2022-11-15T10:25:36;20.57;;;19.37;;
15454;SDS011;21057;51.024;7.540;2022-11-15T10:28:06;21.10;;;19.80;;
15454;SDS011;21057;51.024;7.540;2022-11-15T10:30:39;20.37;;;19.00;;
15454;SDS011;21057;51.024;7.540;2022-11-15T10:33:17;19.93;;;18.53;;
15454;SDS011;21057;51.024;7.540;2022-11-15T10:35:51;19.80;;;18.60;;
15454;SDS011;21057;51.024;7.540;2022-11-15T10:38:52;19.67;;;18.37;;
15454;SDS011;21057;51.024;7.540;2022-11-15T10:41:29;19.03;;;17.87;;
15454;SDS011;21057;51.024;7.540;2022-11-15T10:44:08;19.70;;;18.50;;
15454;SDS011;21057;51.024;7.540;2022-11-15T10:47:04;20.17;;;18.97;;
15454;SDS011;21057;51.024;7.540;2022-11-15T10:49:52;19.80;;;18.70;;
15454;SDS011;21057;51.024;7.540;2022-11-15T10:52:21;20.93;;;19.63;;
15454;SDS011;21057;51.024;7.540;2022-11-15T10:54:50;20.90;;;19.60;;
15454;SDS011;21057;51.024;7.540;2022-11-15T10:57:21;20.20;;;18.93;;
15454;SDS011;21057;51.024;7.540;2022-11-15T10:59:52;19.70;;;18.50;;
15454;SDS011;21057;51.024;7.540;2022-11-15T11:02:28;19.33;;;18.23;;
15454;SDS011;21057;51.024;7.540;2022-11-15T11:05:00;18.73;;;17.50;;
15454;SDS011;21057;51.024;7.540;2022-11-15T11:07:29;19.40;;;18.30;;
15454;SDS011;21057;51.024;7.540;2022-11-15T11:09:59;19.83;;;18.43;;
15454;SDS011;21057;51.024;7.540;2022-11-15T11:12:27;18.30;;;17.30;;
15454;SDS011;21057;51.024;7.540;2022-11-15T11:14:58;18.23;;;17.23;;
15454;SDS011;21057;51.024;7.540;2022-11-15T11:17:30;19.27;;;18.07;;
15454;SDS011;21057;51.024;7.540;2022-11-15T11:20:04;18.87;;;17.83;;
15454;SDS011;21057;51.024;7.540;2022-11-15T11:22:38;20.30;;;18.90;;
15454;SDS011;21057;51.024;7.540;2022-11-15T11:25:18;20.53;;;19.13;;
15454;SDS011;21057;51.024;7.540;2022-11-15T11:27:58;19.70;;;18.50;;
15454;SDS011;21057;51.024;7.540;2022-11-15T11:30:42;19.33;;;18.23;;
15454;SDS011;21057;51.024;7.540;2022-11-15T11:33:24;20.47;;;18.87;;
15454;SDS011;21057;51.024;7.540;2022-11-15T11:35:59;19.90;;;18.60;;
15454;SDS011;21057;51.024;7.540;2022-11-15T11:38:45;19.57;;;18.47;;
15454;SDS011;21057;51.024;7.540;2022-11-15T11:41:20;20.37;;;19.10;;
15454;SDS011;21057;51.024;7.540;2022-11-15T11:44:03;19.50;;;18.30;;
15454;SDS011;21057;51.024;7.540;2022-11-15T11:46:43;19.30;;;18.20;;
15454;SDS011;21057;51.024;7.540;2022-11-15T11:49:16;19.77;;;18.67;;
15454;SDS011;21057;51.024;7.540;2022-11-15T11:51:47;19.63;;;18.53;;
15454;SDS011;21057;51.024;7.540;2022-11-15T11:54:19;20.20;;;18.67;;
15454;SDS011;21057;51.024;7.540;2022-11-15T11:56:49;18.97;;;17.87;;
15454;SDS011;21057;51.024;7.540;2022-11-15T11:59:19;19.83;;;18.33;;
15454;SDS011;21057;51.024;7.540;2022-11-15T12:01:53;19.20;;;18.00;;
15454;SDS011;21057;51.024;7.540;2022-11-15T12:04:21;19.37;;;18.27;;
15454;SDS011;21057;51.024;7.540;2022-11-15T12:06:56;19.03;;;17.77;;
15454;SDS011;21057;51.024;7.540;2022-11-15T12:09:27;18.87;;;17.70;;
15454;SDS011;21057;51.024;7.540;2022-11-15T12:12:00;19.33;;;18.03;;
15454;SDS011;21057;51.024;7.540;2022-11-15T12:14:35;18.80;;;17.70;;
15454;SDS011;21057;51.024;7.540;2022-11-15T12:17:09;19.80;;;18.67;;
15454;SDS011;21057;51.024;7.540;2022-11-15T12:19:37;20.37;;;19.17;;
15454;SDS011;21057;51.024;7.540;2022-11-15T12:22:04;19.83;;;18.47;;
15454;SDS011;21057;51.024;7.540;2022-11-15T12:24:38;19.93;;;18.73;;
15454;SDS011;21057;51.024;7.540;2022-11-15T12:27:15;20.43;;;19.23;;
15454;SDS011;21057;51.024;7.540;2022-11-15T12:29:46;19.90;;;18.67;;
15454;SDS011;21057;51.024;7.540;2022-11-15T12:32:18;19.53;;;18.33;;
15454;SDS011;21057;51.024;7.540;2022-11-15T12:34:51;19.97;;;18.77;;
15454;SDS011;21057;51.024;7.540;2022-11-15T12:40:20;21.00;;;19.70;;
15454;SDS011;21057;51.024;7.540;2022-11-15T12:43:02;20.00;;;18.70;;
15454;SDS011;21057;51.024;7.540;2022-11-15T12:45:34;19.60;;;18.40;;
15454;SDS011;21057;51.024;7.540;2022-11-15T12:51:20;20.43;;;19.23;;
15454;SDS011;21057;51.024;7.540;2022-11-15T12:53:49;20.63;;;19.20;;
15454;SDS011;21057;51.024;7.540;2022-11-15T12:56:18;19.90;;;18.70;;
15454;SDS011;21057;51.024;7.540;2022-11-15T12:58:48;20.87;;;19.47;;
15454;SDS011;21057;51.024;7.540;2022-11-15T13:04:21;20.57;;;19.00;;
15454;SDS011;21057;51.024;7.540;2022-11-15T13:06:52;19.47;;;18.17;;
15454;SDS011;21057;51.024;7.540;2022-11-15T13:18:28;19.60;;;18.30;;
15454;SDS011;21057;51.024;7.540;2022-11-15T13:21:03;19.63;;;18.47;;
15454;SDS011;21057;51.024;7.540;2022-11-15T13:23:59;20.20;;;18.90;;
15454;SDS011;21057;51.024;7.540;2022-11-15T13:26:25;19.90;;;18.50;;
15454;SDS011;21057;51.024;7.540;2022-11-15T13:28:52;20.03;;;18.83;;
15454;SDS011;21057;51.024;7.540;2022-11-15T13:31:27;18.90;;;17.70;;
15454;SDS011;21057;51.024;7.540;2022-11-15T13:34:02;20.23;;;18.90;;
15454;SDS011;21057;51.024;7.540;2022-11-15T13:36:39;19.60;;;17.90;;
15454;SDS011;21057;51.024;7.540;2022-11-15T13:39:12;19.57;;;18.33;;
15454;SDS011;21057;51.024;7.540;2022-11-15T13:41:52;19.40;;;18.00;;
15454;SDS011;21057;51.024;7.540;2022-11-15T13:44:19;19.13;;;17.93;;
15454;SDS011;21057;51.024;7.540;2022-11-15T13:46:48;19.03;;;17.93;;
15454;SDS011;21057;51.024;7.540;2022-11-15T13:49:15;19.40;;;18.30;;
15454;SDS011;21057;51.024;7.540;2022-11-15T13:51:43;18.90;;;17.80;;
15454;SDS011;21057;51.024;7.540;2022-11-15T13:54:16;18.57;;;17.37;;
15454;SDS011;21057;51.024;7.540;2022-11-15T13:56:48;20.63;;;18.90;;
15454;SDS011;21057;51.024;7.540;2022-11-15T13:59:22;18.80;;;17.60;;
15454;SDS011;21057;51.024;7.540;2022-11-15T14:01:51;19.10;;;17.53;;
15454;SDS011;21057;51.024;7.540;2022-11-15T14:04:19;18.77;;;17.67;;
15454;SDS011;21057;51.024;7.540;2022-11-15T14:06:50;20.17;;;18.43;;
15454;SDS011;21057;51.024;7.540;2022-11-15T14:09:31;19.00;;;17.83;;
15454;SDS011;21057;51.024;7.540;2022-11-15T14:12:00;19.60;;;18.40;;
15454;SDS011;21057;51.024;7.540;2022-11-15T14:14:29;19.30;;;18.00;;
15454;SDS011;21057;51.024;7.540;2022-11-15T14:16:56;18.70;;;17.60;;
15454;SDS011;21057;51.024;7.540;2022-11-15T14:19:35;19.50;;;18.20;;
15454;SDS011;21057;51.024;7.540;2022-11-15T14:22:10;19.93;;;18.57;;
15454;SDS011;21057;51.024;7.540;2022-11-15T14:24:43;19.53;;;18.20;;
15454;SDS011;21057;51.024;7.540;2022-11-15T14:27:18;19.47;;;18.27;;
15454;SDS011;21057;51.024;7.540;2022-11-15T14:29:50;19.20;;;18.00;;
15454;SDS011;21057;51.024;7.540;2022-11-15T14:32:17;19.03;;;17.93;;
15454;SDS011;21057;51.024;7.540;2022-11-15T14:34:46;19.00;;;17.70;;
15454;SDS011;21057;51.024;7.540;2022-11-15T14:37:18;18.13;;;17.03;;
15454;SDS011;21057;51.024;7.540;2022-11-15T14:39:48;18.83;;;17.63;;
15454;SDS011;21057;51.024;7.540;2022-11-15T14:42:16;18.93;;;17.83;;
15454;SDS011;21057;51.024;7.540;2022-11-15T14:44:43;18.60;;;17.40;;
15454;SDS011;21057;51.024;7.540;2022-11-15T14:47:10;18.20;;;17.10;;
15454;SDS011;21057;51.024;7.540;2022-11-15T14:49:37;19.13;;;18.03;;
15454;SDS011;21057;51.024;7.540;2022-11-15T14:52:07;19.60;;;18.10;;
15454;SDS011;21057;51.024;7.540;2022-11-15T14:54:42;18.67;;;17.57;;
15454;SDS011;21057;51.024;7.540;2022-11-15T14:57:10;19.63;;;18.33;;
15454;SDS011;21057;51.024;7.540;2022-11-15T14:59:37;20.53;;;18.80;;
15454;SDS011;21057;51.024;7.540;2022-11-15T15:02:08;19.90;;;18.30;;
15454;SDS011;21057;51.024;7.540;2022-11-15T15:04:41;19.47;;;18.10;;
15454;SDS011;21057;51.024;7.540;2022-11-15T15:07:07;18.50;;;17.33;;